sensor_id;sensor_type;location;lat;lon;timestamp;P1;durP1;ratioP1;P2;durP2;ratioP2
14613;SDS011;7393;51.446;6.800;2024-02-21T00:00:52;26.83;;;12.60;;
14613;SDS011;7393;51.446;6.800;2024-02-21T00:03:19;24.70;;;11.40;;
14613;SDS011;7393;51.446;6.800;2024-02-21T00:05:46;23.73;;;12.13;;
14613;SDS011;7393;51.446;6.800;2024-02-21T00:08:15;33.60;;;12.80;;
14613;SDS011;7393;51.446;6.800;2024-02-21T00:10:43;23.13;;;11.67;;
14613;SDS011;7393;51.446;6.800;2024-02-21T00:13:10;25.37;;;12.40;;
14613;SDS011;7393;51.446;6.800;2024-02-21T00:15:37;25.43;;;12.33;;
14613;SDS011;7393;51.446;6.800;2024-02-21T00:18:04;29.27;;;12.83;;
14613;SDS011;7393;51.446;6.800;2024-02-21T00:20:30;22.83;;;11.90;;
14613;SDS011;7393;51.446;6.800;2024-02-21T00:22:57;29.87;;;12.03;;
14613;SDS011;7393;51.446;6.800;2024-02-21T00:25:25;28.00;;;12.93;;
14613;SDS011;7393;51.446;6.800;2024-02-21T00:27:52;24.80;;;12.53;;
14613;SDS011;7393;51.446;6.800;2024-02-21T00:30:19;26.30;;;12.77;;
14613;SDS011;7393;51.446;6.800;2024-02-21T00:32:46;24.97;;;12.43;;
14613;SDS011;7393;51.446;6.800;2024-02-21T00:35:13;24.27;;;12.67;;
14613;SDS011;7393;51.446;6.800;2024-02-21T00:37:40;24.60;;;12.67;;
14613;SDS011;7393;51.446;6.800;2024-02-21T00:40:07;20.73;;;12.00;;
14613;SDS011;7393;51.446;6.800;2024-02-21T00:42:36;27.43;;;12.27;;
14613;SDS011;7393;51.446;6.800;2024-02-21T00:45:03;23.17;;;12.23;;
14613;SDS011;7393;51.446;6.800;2024-02-21T00:47:30;26.20;;;11.93;;
14613;SDS011;7393;51.446;6.800;2024-02-21T00:49:57;25.17;;;11.97;;
14613;SDS011;7393;51.446;6.800;2024-02-21T00:52:23;26.67;;;12.50;;
14613;SDS011;7393;51.446;6.800;2024-02-21T00:54:50;24.20;;;12.07;;
14613;SDS011;7393;51.446;6.800;2024-02-21T00:57:17;28.27;;;11.83;;
14613;SDS011;7393;51.446;6.800;2024-02-21T00:59:45;28.60;;;13.13;;
14613;SDS011;7393;51.446;6.800;2024-02-21T01:02:12;28.37;;;12.23;;
14613;SDS011;7393;51.446;6.800;2024-02-21T01:04:39;25.60;;;12.37;;
14613;SDS011;7393;51.446;6.800;2024-02-21T01:07:05;23.43;;;12.13;;
14613;SDS011;7393;51.446;6.800;2024-02-21T01:09:32;27.83;;;12.63;;
14613;SDS011;7393;51.446;6.800;2024-02-21T01:11:59;24.73;;;12.60;;
14613;SDS011;7393;51.446;6.800;2024-02-21T01:14:26;22.53;;;11.43;;
14613;SDS011;7393;51.446;6.800;2024-02-21T01:16:54;23.53;;;11.83;;
14613;SDS011;7393;51.446;6.800;2024-02-21T01:19:21;26.50;;;11.60;;
14613;SDS011;7393;51.446;6.800;2024-02-21T01:21:47;27.60;;;12.00;;
14613;SDS011;7393;51.446;6.800;2024-02-21T01:24:14;20.20;;;11.90;;
14613;SDS011;7393;51.446;6.800;2024-02-21T01:26:41;25.03;;;11.67;;
14613;SDS011;7393;51.446;6.800;2024-02-21T01:29:08;23.67;;;12.40;;
14613;SDS011;7393;51.446;6.800;2024-02-21T01:31:34;25.47;;;11.70;;
14613;SDS011;7393;51.446;6.800;2024-02-21T01:34:03;23.67;;;10.83;;
14613;SDS011;7393;51.446;6.800;2024-02-21T01:36:29;23.93;;;11.10;;
14613;SDS011;7393;51.446;6.800;2024-02-21T01:38:56;21.73;;;11.03;;
14613;SDS011;7393;51.446;6.800;2024-02-21T01:41:23;22.53;;;10.70;;
14613;SDS011;7393;51.446;6.800;2024-02-21T01:43:50;22.50;;;10.70;;
14613;SDS011;7393;51.446;6.800;2024-02-21T01:46:17;21.27;;;10.97;;
14613;SDS011;7393;51.446;6.800;2024-02-21T01:48:44;24.53;;;11.00;;
14613;SDS011;7393;51.446;6.800;2024-02-21T01:51:13;19.90;;;9.97;;
14613;SDS011;7393;51.446;6.800;2024-02-21T01:53:42;19.03;;;10.43;;
14613;SDS011;7393;51.446;6.800;2024-02-21T01:56:10;22.13;;;10.43;;
14613;SDS011;7393;51.446;6.800;2024-02-21T01:58:39;21.37;;;9.63;;
14613;SDS011;7393;51.446;6.800;2024-02-21T02:01:08;23.40;;;10.77;;
14613;SDS011;7393;51.446;6.800;2024-02-21T02:03:36;23.13;;;11.03;;
14613;SDS011;7393;51.446;6.800;2024-02-21T02:06:04;21.30;;;10.37;;
14613;SDS011;7393;51.446;6.800;2024-02-21T02:08:33;21.23;;;10.20;;
14613;SDS011;7393;51.446;6.800;2024-02-21T02:11:00;19.53;;;10.27;;
14613;SDS011;7393;51.446;6.800;2024-02-21T02:13:27;17.40;;;10.00;;
14613;SDS011;7393;51.446;6.800;2024-02-21T02:15:54;22.30;;;10.20;;
14613;SDS011;7393;51.446;6.800;2024-02-21T02:18:21;19.60;;;10.37;;
14613;SDS011;7393;51.446;6.800;2024-02-21T02:20:48;18.43;;;9.60;;
14613;SDS011;7393;51.446;6.800;2024-02-21T02:23:24;21.17;;;10.57;;
14613;SDS011;7393;51.446;6.800;2024-02-21T02:25:52;20.53;;;10.27;;
14613;SDS011;7393;51.446;6.800;2024-02-21T02:28:19;21.17;;;10.23;;
14613;SDS011;7393;51.446;6.800;2024-02-21T02:30:46;21.13;;;10.00;;
14613;SDS011;7393;51.446;6.800;2024-02-21T02:33:13;18.87;;;10.17;;
14613;SDS011;7393;51.446;6.800;2024-02-21T02:35:42;21.23;;;10.00;;
14613;SDS011;7393;51.446;6.800;2024-02-21T02:38:09;23.30;;;10.43;;
14613;SDS011;7393;51.446;6.800;2024-02-21T02:40:38;22.13;;;10.23;;
14613;SDS011;7393;51.446;6.800;2024-02-21T02:43:05;19.97;;;9.83;;
14613;SDS011;7393;51.446;6.800;2024-02-21T02:45:32;21.57;;;10.23;;
14613;SDS011;7393;51.446;6.800;2024-02-21T02:47:59;20.77;;;10.57;;
14613;SDS011;7393;51.446;6.800;2024-02-21T02:50:27;22.33;;;10.13;;
14613;SDS011;7393;51.446;6.800;2024-02-21T02:52:54;22.63;;;9.90;;
14613;SDS011;7393;51.446;6.800;2024-02-21T02:55:21;25.70;;;10.40;;
14613;SDS011;7393;51.446;6.800;2024-02-21T02:57:49;22.30;;;10.10;;
14613;SDS011;7393;51.446;6.800;2024-02-21T03:00:17;17.97;;;9.53;;
14613;SDS011;7393;51.446;6.800;2024-02-21T03:02:45;20.90;;;9.60;;
14613;SDS011;7393;51.446;6.800;2024-02-21T03:05:15;23.93;;;10.33;;
14613;SDS011;7393;51.446;6.800;2024-02-21T03:07:42;18.53;;;9.93;;
14613;SDS011;7393;51.446;6.800;2024-02-21T03:10:10;22.13;;;10.00;;
14613;SDS011;7393;51.446;6.800;2024-02-21T03:12:38;23.33;;;10.37;;
14613;SDS011;7393;51.446;6.800;2024-02-21T03:15:06;19.13;;;9.03;;
14613;SDS011;7393;51.446;6.800;2024-02-21T03:17:34;22.57;;;9.43;;
14613;SDS011;7393;51.446;6.800;2024-02-21T03:20:01;21.43;;;10.00;;
14613;SDS011;7393;51.446;6.800;2024-02-21T03:22:30;18.90;;;9.70;;
14613;SDS011;7393;51.446;6.800;2024-02-21T03:24:57;22.93;;;9.97;;
14613;SDS011;7393;51.446;6.800;2024-02-21T03:27:24;22.27;;;9.53;;
14613;SDS011;7393;51.446;6.800;2024-02-21T03:29:51;22.63;;;10.33;;
14613;SDS011;7393;51.446;6.800;2024-02-21T03:32:19;27.20;;;11.33;;
14613;SDS011;7393;51.446;6.800;2024-02-21T03:34:46;21.03;;;10.40;;
14613;SDS011;7393;51.446;6.800;2024-02-21T03:37:12;23.23;;;11.07;;
14613;SDS011;7393;51.446;6.800;2024-02-21T03:39:39;26.43;;;10.80;;
14613;SDS011;7393;51.446;6.800;2024-02-21T03:42:06;22.17;;;11.37;;
14613;SDS011;7393;51.446;6.800;2024-02-21T03:44:33;22.73;;;11.10;;
14613;SDS011;7393;51.446;6.800;2024-02-21T03:47:00;20.57;;;10.60;;
14613;SDS011;7393;51.446;6.800;2024-02-21T03:49:29;23.67;;;10.47;;
14613;SDS011;7393;51.446;6.800;2024-02-21T03:51:55;23.70;;;11.57;;
14613;SDS011;7393;51.446;6.800;2024-02-21T03:54:22;20.33;;;10.33;;
14613;SDS011;7393;51.446;6.800;2024-02-21T03:56:49;23.87;;;10.70;;
14613;SDS011;7393;51.446;6.800;2024-02-21T03:59:16;23.93;;;10.10;;
14613;SDS011;7393;51.446;6.800;2024-02-21T04:01:42;19.67;;;11.83;;
14613;SDS011;7393;51.446;6.800;2024-02-21T04:04:09;22.70;;;11.57;;
14613;SDS011;7393;51.446;6.800;2024-02-21T04:06:45;23.87;;;12.67;;
14613;SDS011;7393;51.446;6.800;2024-02-21T04:09:13;19.87;;;11.03;;
14613;SDS011;7393;51.446;6.800;2024-02-21T04:11:40;19.13;;;11.50;;
14613;SDS011;7393;51.446;6.800;2024-02-21T04:14:06;24.03;;;11.57;;
14613;SDS011;7393;51.446;6.800;2024-02-21T04:16:34;22.53;;;11.53;;
14613;SDS011;7393;51.446;6.800;2024-02-21T04:19:00;19.03;;;10.77;;
14613;SDS011;7393;51.446;6.800;2024-02-21T04:21:28;21.43;;;10.67;;
14613;SDS011;7393;51.446;6.800;2024-02-21T04:23:56;21.37;;;10.63;;
14613;SDS011;7393;51.446;6.800;2024-02-21T04:26:23;18.93;;;10.33;;
14613;SDS011;7393;51.446;6.800;2024-02-21T04:28:50;23.20;;;10.93;;
14613;SDS011;7393;51.446;6.800;2024-02-21T04:31:17;21.53;;;10.30;;
14613;SDS011;7393;51.446;6.800;2024-02-21T04:33:44;19.07;;;9.40;;
14613;SDS011;7393;51.446;6.800;2024-02-21T04:36:10;17.23;;;8.80;;
14613;SDS011;7393;51.446;6.800;2024-02-21T04:38:37;15.30;;;8.50;;
14613;SDS011;7393;51.446;6.800;2024-02-21T04:41:05;23.90;;;9.00;;
14613;SDS011;7393;51.446;6.800;2024-02-21T04:43:33;18.37;;;8.73;;
14613;SDS011;7393;51.446;6.800;2024-02-21T04:45:59;15.73;;;7.63;;
14613;SDS011;7393;51.446;6.800;2024-02-21T04:48:26;18.83;;;8.30;;
14613;SDS011;7393;51.446;6.800;2024-02-21T04:50:53;16.20;;;7.80;;
14613;SDS011;7393;51.446;6.800;2024-02-21T04:53:20;15.20;;;7.60;;
14613;SDS011;7393;51.446;6.800;2024-02-21T04:55:47;14.60;;;7.77;;
14613;SDS011;7393;51.446;6.800;2024-02-21T04:58:15;19.40;;;8.47;;
14613;SDS011;7393;51.446;6.800;2024-02-21T05:00:42;14.87;;;8.20;;
14613;SDS011;7393;51.446;6.800;2024-02-21T05:03:09;15.03;;;7.70;;
14613;SDS011;7393;51.446;6.800;2024-02-21T05:05:36;17.33;;;7.37;;
14613;SDS011;7393;51.446;6.800;2024-02-21T05:08:03;15.13;;;7.20;;
14613;SDS011;7393;51.446;6.800;2024-02-21T05:10:30;16.77;;;8.03;;
14613;SDS011;7393;51.446;6.800;2024-02-21T05:12:57;15.60;;;7.17;;
14613;SDS011;7393;51.446;6.800;2024-02-21T05:15:25;16.67;;;7.40;;
14613;SDS011;7393;51.446;6.800;2024-02-21T05:17:52;15.80;;;7.97;;
14613;SDS011;7393;51.446;6.800;2024-02-21T05:20:19;14.40;;;7.90;;
14613;SDS011;7393;51.446;6.800;2024-02-21T05:22:46;17.03;;;6.90;;
14613;SDS011;7393;51.446;6.800;2024-02-21T05:25:13;17.47;;;7.87;;
14613;SDS011;7393;51.446;6.800;2024-02-21T05:27:40;10.83;;;6.70;;
14613;SDS011;7393;51.446;6.800;2024-02-21T05:30:07;15.93;;;7.00;;
14613;SDS011;7393;51.446;6.800;2024-02-21T05:32:36;16.37;;;7.70;;
14613;SDS011;7393;51.446;6.800;2024-02-21T05:35:03;15.77;;;6.77;;
14613;SDS011;7393;51.446;6.800;2024-02-21T05:37:30;16.37;;;7.23;;
14613;SDS011;7393;51.446;6.800;2024-02-21T05:39:57;17.73;;;7.33;;
14613;SDS011;7393;51.446;6.800;2024-02-21T05:42:23;14.10;;;6.77;;
14613;SDS011;7393;51.446;6.800;2024-02-21T05:44:50;13.33;;;6.73;;
14613;SDS011;7393;51.446;6.800;2024-02-21T05:47:17;15.17;;;7.53;;
14613;SDS011;7393;51.446;6.800;2024-02-21T05:49:46;16.17;;;6.80;;
14613;SDS011;7393;51.446;6.800;2024-02-21T05:52:14;13.53;;;7.03;;
14613;SDS011;7393;51.446;6.800;2024-02-21T05:54:40;15.00;;;7.00;;
14613;SDS011;7393;51.446;6.800;2024-02-21T05:57:07;19.00;;;6.97;;
14613;SDS011;7393;51.446;6.800;2024-02-21T05:59:34;15.53;;;7.07;;
14613;SDS011;7393;51.446;6.800;2024-02-21T06:02:05;14.73;;;6.83;;
14613;SDS011;7393;51.446;6.800;2024-02-21T06:04:31;15.10;;;6.70;;
14613;SDS011;7393;51.446;6.800;2024-02-21T06:06:59;16.63;;;6.97;;
14613;SDS011;7393;51.446;6.800;2024-02-21T06:09:26;15.50;;;6.97;;
14613;SDS011;7393;51.446;6.800;2024-02-21T06:11:53;12.70;;;6.67;;
14613;SDS011;7393;51.446;6.800;2024-02-21T06:14:20;20.00;;;6.40;;
14613;SDS011;7393;51.446;6.800;2024-02-21T06:16:47;18.27;;;6.90;;
14613;SDS011;7393;51.446;6.800;2024-02-21T06:19:14;16.50;;;7.17;;
14613;SDS011;7393;51.446;6.800;2024-02-21T06:21:40;15.93;;;6.87;;
14613;SDS011;7393;51.446;6.800;2024-02-21T06:24:09;16.67;;;6.67;;
14613;SDS011;7393;51.446;6.800;2024-02-21T06:26:37;17.00;;;6.63;;
14613;SDS011;7393;51.446;6.800;2024-02-21T06:29:05;9.90;;;5.47;;
14613;SDS011;7393;51.446;6.800;2024-02-21T06:31:32;12.20;;;6.37;;
14613;SDS011;7393;51.446;6.800;2024-02-21T06:33:58;12.93;;;6.00;;
14613;SDS011;7393;51.446;6.800;2024-02-21T06:36:25;13.33;;;6.33;;
14613;SDS011;7393;51.446;6.800;2024-02-21T06:38:52;12.33;;;6.60;;
14613;SDS011;7393;51.446;6.800;2024-02-21T06:41:20;13.83;;;6.83;;
14613;SDS011;7393;51.446;6.800;2024-02-21T06:43:47;15.47;;;6.70;;
14613;SDS011;7393;51.446;6.800;2024-02-21T06:46:22;19.10;;;6.90;;
14613;SDS011;7393;51.446;6.800;2024-02-21T06:48:49;12.90;;;6.50;;
14613;SDS011;7393;51.446;6.800;2024-02-21T06:51:16;13.87;;;6.97;;
14613;SDS011;7393;51.446;6.800;2024-02-21T06:53:43;14.33;;;5.97;;
14613;SDS011;7393;51.446;6.800;2024-02-21T06:56:10;11.33;;;5.87;;
14613;SDS011;7393;51.446;6.800;2024-02-21T06:58:38;17.37;;;6.97;;
14613;SDS011;7393;51.446;6.800;2024-02-21T07:01:04;13.27;;;6.30;;
14613;SDS011;7393;51.446;6.800;2024-02-21T07:03:32;16.03;;;6.60;;
14613;SDS011;7393;51.446;6.800;2024-02-21T07:05:58;18.03;;;6.43;;
14613;SDS011;7393;51.446;6.800;2024-02-21T07:08:25;17.87;;;6.73;;
14613;SDS011;7393;51.446;6.800;2024-02-21T07:10:52;13.97;;;5.97;;
14613;SDS011;7393;51.446;6.800;2024-02-21T07:13:19;12.40;;;6.10;;
14613;SDS011;7393;51.446;6.800;2024-02-21T07:15:49;11.87;;;5.87;;
14613;SDS011;7393;51.446;6.800;2024-02-21T07:18:16;14.57;;;5.40;;
14613;SDS011;7393;51.446;6.800;2024-02-21T07:20:43;11.37;;;6.10;;
14613;SDS011;7393;51.446;6.800;2024-02-21T07:23:09;10.63;;;5.67;;
14613;SDS011;7393;51.446;6.800;2024-02-21T07:25:36;14.43;;;6.00;;
14613;SDS011;7393;51.446;6.800;2024-02-21T07:28:03;11.03;;;5.93;;
14613;SDS011;7393;51.446;6.800;2024-02-21T07:30:30;14.33;;;5.90;;
14613;SDS011;7393;51.446;6.800;2024-02-21T07:32:58;15.33;;;6.30;;
14613;SDS011;7393;51.446;6.800;2024-02-21T07:35:25;14.37;;;6.20;;
14613;SDS011;7393;51.446;6.800;2024-02-21T07:37:52;12.57;;;6.07;;
14613;SDS011;7393;51.446;6.800;2024-02-21T07:40:19;16.27;;;6.53;;
14613;SDS011;7393;51.446;6.800;2024-02-21T07:42:45;13.13;;;6.20;;
14613;SDS011;7393;51.446;6.800;2024-02-21T07:45:12;14.97;;;6.13;;
14613;SDS011;7393;51.446;6.800;2024-02-21T07:47:41;15.90;;;6.33;;
14613;SDS011;7393;51.446;6.800;2024-02-21T07:50:09;13.73;;;5.83;;
14613;SDS011;7393;51.446;6.800;2024-02-21T07:52:36;14.53;;;5.87;;
14613;SDS011;7393;51.446;6.800;2024-02-21T07:55:03;12.57;;;5.17;;
14613;SDS011;7393;51.446;6.800;2024-02-21T07:57:30;10.13;;;5.60;;
14613;SDS011;7393;51.446;6.800;2024-02-21T07:59:57;12.33;;;5.93;;
14613;SDS011;7393;51.446;6.800;2024-02-21T08:02:24;11.97;;;5.60;;
14613;SDS011;7393;51.446;6.800;2024-02-21T08:04:50;10.47;;;5.37;;
14613;SDS011;7393;51.446;6.800;2024-02-21T08:07:18;13.60;;;5.77;;
14613;SDS011;7393;51.446;6.800;2024-02-21T08:09:45;12.93;;;5.67;;
14613;SDS011;7393;51.446;6.800;2024-02-21T08:12:12;10.30;;;5.10;;
14613;SDS011;7393;51.446;6.800;2024-02-21T08:14:39;10.23;;;5.33;;
14613;SDS011;7393;51.446;6.800;2024-02-21T08:17:05;14.10;;;5.43;;
14613;SDS011;7393;51.446;6.800;2024-02-21T08:19:32;13.03;;;4.73;;
14613;SDS011;7393;51.446;6.800;2024-02-21T08:21:59;8.53;;;4.63;;
14613;SDS011;7393;51.446;6.800;2024-02-21T08:24:27;12.37;;;5.20;;
14613;SDS011;7393;51.446;6.800;2024-02-21T08:26:54;10.97;;;4.83;;
14613;SDS011;7393;51.446;6.800;2024-02-21T08:29:21;10.83;;;4.90;;
14613;SDS011;7393;51.446;6.800;2024-02-21T08:31:48;13.13;;;4.80;;
14613;SDS011;7393;51.446;6.800;2024-02-21T08:34:14;12.53;;;5.23;;
14613;SDS011;7393;51.446;6.800;2024-02-21T08:36:41;13.13;;;5.17;;
14613;SDS011;7393;51.446;6.800;2024-02-21T08:39:09;15.20;;;5.90;;
14613;SDS011;7393;51.446;6.800;2024-02-21T08:41:37;10.37;;;4.73;;
14613;SDS011;7393;51.446;6.800;2024-02-21T08:44:04;14.20;;;5.43;;
14613;SDS011;7393;51.446;6.800;2024-02-21T08:46:31;12.97;;;5.60;;
14613;SDS011;7393;51.446;6.800;2024-02-21T08:48:57;14.33;;;5.93;;
14613;SDS011;7393;51.446;6.800;2024-02-21T08:51:24;15.03;;;4.90;;
14613;SDS011;7393;51.446;6.800;2024-02-21T08:53:51;12.17;;;4.77;;
14613;SDS011;7393;51.446;6.800;2024-02-21T08:56:18;12.87;;;5.57;;
14613;SDS011;7393;51.446;6.800;2024-02-21T08:58:47;13.30;;;4.60;;
14613;SDS011;7393;51.446;6.800;2024-02-21T09:01:13;11.00;;;4.50;;
14613;SDS011;7393;51.446;6.800;2024-02-21T09:03:40;20.00;;;5.30;;
14613;SDS011;7393;51.446;6.800;2024-02-21T09:06:07;14.77;;;4.70;;
14613;SDS011;7393;51.446;6.800;2024-02-21T09:08:35;16.57;;;5.33;;
14613;SDS011;7393;51.446;6.800;2024-02-21T09:11:02;12.43;;;4.50;;
14613;SDS011;7393;51.446;6.800;2024-02-21T09:13:29;11.27;;;4.80;;
14613;SDS011;7393;51.446;6.800;2024-02-21T09:15:58;13.30;;;5.23;;
14613;SDS011;7393;51.446;6.800;2024-02-21T09:18:24;12.50;;;4.30;;
14613;SDS011;7393;51.446;6.800;2024-02-21T09:20:51;9.93;;;4.30;;
14613;SDS011;7393;51.446;6.800;2024-02-21T09:23:18;12.47;;;4.00;;
14613;SDS011;7393;51.446;6.800;2024-02-21T09:25:45;11.33;;;4.20;;
14613;SDS011;7393;51.446;6.800;2024-02-21T09:28:12;15.33;;;4.73;;
14613;SDS011;7393;51.446;6.800;2024-02-21T09:30:39;15.10;;;4.37;;
14613;SDS011;7393;51.446;6.800;2024-02-21T09:33:07;9.83;;;3.97;;
14613;SDS011;7393;51.446;6.800;2024-02-21T09:35:34;11.93;;;4.10;;
14613;SDS011;7393;51.446;6.800;2024-02-21T09:38:01;11.40;;;4.10;;
14613;SDS011;7393;51.446;6.800;2024-02-21T09:40:28;12.27;;;4.90;;
14613;SDS011;7393;51.446;6.800;2024-02-21T09:42:59;13.17;;;4.17;;
14613;SDS011;7393;51.446;6.800;2024-02-21T09:45:32;12.77;;;3.97;;
14613;SDS011;7393;51.446;6.800;2024-02-21T09:48:05;10.27;;;3.80;;
14613;SDS011;7393;51.446;6.800;2024-02-21T09:50:45;10.93;;;3.90;;
14613;SDS011;7393;51.446;6.800;2024-02-21T09:53:15;11.87;;;3.80;;
14613;SDS011;7393;51.446;6.800;2024-02-21T09:55:42;9.77;;;4.00;;
14613;SDS011;7393;51.446;6.800;2024-02-21T09:58:10;13.17;;;3.70;;
14613;SDS011;7393;51.446;6.800;2024-02-21T10:00:37;11.60;;;4.10;;
14613;SDS011;7393;51.446;6.800;2024-02-21T10:03:04;16.93;;;4.10;;
14613;SDS011;7393;51.446;6.800;2024-02-21T10:05:36;11.70;;;3.73;;
14613;SDS011;7393;51.446;6.800;2024-02-21T10:08:04;13.70;;;4.10;;
14613;SDS011;7393;51.446;6.800;2024-02-21T10:10:40;11.23;;;3.77;;
14613;SDS011;7393;51.446;6.800;2024-02-21T10:13:08;10.97;;;3.73;;
14613;SDS011;7393;51.446;6.800;2024-02-21T10:15:35;7.77;;;3.80;;
14613;SDS011;7393;51.446;6.800;2024-02-21T10:18:02;12.77;;;3.80;;
14613;SDS011;7393;51.446;6.800;2024-02-21T10:20:31;11.87;;;3.47;;
14613;SDS011;7393;51.446;6.800;2024-02-21T10:23:03;9.00;;;3.67;;
14613;SDS011;7393;51.446;6.800;2024-02-21T10:25:33;17.10;;;3.93;;
14613;SDS011;7393;51.446;6.800;2024-02-21T10:28:01;14.97;;;3.37;;
14613;SDS011;7393;51.446;6.800;2024-02-21T10:30:29;10.37;;;3.63;;
14613;SDS011;7393;51.446;6.800;2024-02-21T10:32:56;9.73;;;3.63;;
14613;SDS011;7393;51.446;6.800;2024-02-21T10:35:26;9.30;;;3.50;;
14613;SDS011;7393;51.446;6.800;2024-02-21T10:37:54;9.80;;;3.30;;
14613;SDS011;7393;51.446;6.800;2024-02-21T10:40:23;10.10;;;3.40;;
14613;SDS011;7393;51.446;6.800;2024-02-21T10:42:52;10.83;;;3.10;;
14613;SDS011;7393;51.446;6.800;2024-02-21T10:45:24;15.63;;;3.97;;
14613;SDS011;7393;51.446;6.800;2024-02-21T10:47:55;11.67;;;3.63;;
14613;SDS011;7393;51.446;6.800;2024-02-21T10:50:25;11.00;;;3.13;;
14613;SDS011;7393;51.446;6.800;2024-02-21T10:52:59;8.63;;;3.07;;
14613;SDS011;7393;51.446;6.800;2024-02-21T10:55:46;14.87;;;3.30;;
14613;SDS011;7393;51.446;6.800;2024-02-21T10:58:21;6.63;;;2.63;;
14613;SDS011;7393;51.446;6.800;2024-02-21T11:00:50;15.60;;;3.77;;
14613;SDS011;7393;51.446;6.800;2024-02-21T11:03:18;10.57;;;3.40;;
14613;SDS011;7393;51.446;6.800;2024-02-21T11:05:45;9.13;;;3.27;;
14613;SDS011;7393;51.446;6.800;2024-02-21T11:08:12;5.20;;;3.00;;
14613;SDS011;7393;51.446;6.800;2024-02-21T11:10:40;7.17;;;3.10;;
14613;SDS011;7393;51.446;6.800;2024-02-21T11:13:13;6.00;;;3.20;;
14613;SDS011;7393;51.446;6.800;2024-02-21T11:15:40;8.50;;;4.07;;
14613;SDS011;7393;51.446;6.800;2024-02-21T11:18:07;9.27;;;3.23;;
14613;SDS011;7393;51.446;6.800;2024-02-21T11:20:35;14.50;;;3.27;;
14613;SDS011;7393;51.446;6.800;2024-02-21T11:23:02;8.87;;;3.20;;
14613;SDS011;7393;51.446;6.800;2024-02-21T11:25:30;6.67;;;3.20;;
14613;SDS011;7393;51.446;6.800;2024-02-21T11:28:00;9.50;;;3.27;;
14613;SDS011;7393;51.446;6.800;2024-02-21T11:30:29;5.57;;;2.80;;
14613;SDS011;7393;51.446;6.800;2024-02-21T11:33:00;7.67;;;3.17;;
14613;SDS011;7393;51.446;6.800;2024-02-21T11:35:30;5.80;;;2.63;;
14613;SDS011;7393;51.446;6.800;2024-02-21T11:38:07;11.20;;;3.27;;
14613;SDS011;7393;51.446;6.800;2024-02-21T11:40:35;7.33;;;2.80;;
14613;SDS011;7393;51.446;6.800;2024-02-21T11:43:05;5.43;;;2.80;;
14613;SDS011;7393;51.446;6.800;2024-02-21T11:45:32;8.00;;;2.77;;
14613;SDS011;7393;51.446;6.800;2024-02-21T11:47:59;14.00;;;3.40;;
14613;SDS011;7393;51.446;6.800;2024-02-21T11:50:25;20.00;;;4.47;;
14613;SDS011;7393;51.446;6.800;2024-02-21T11:52:54;18.17;;;3.90;;
14613;SDS011;7393;51.446;6.800;2024-02-21T11:55:21;12.67;;;3.40;;
14613;SDS011;7393;51.446;6.800;2024-02-21T11:57:48;9.60;;;3.37;;
14613;SDS011;7393;51.446;6.800;2024-02-21T12:00:17;8.10;;;3.27;;
14613;SDS011;7393;51.446;6.800;2024-02-21T12:02:46;8.37;;;3.00;;
14613;SDS011;7393;51.446;6.800;2024-02-21T12:05:13;15.57;;;4.10;;
14613;SDS011;7393;51.446;6.800;2024-02-21T12:07:40;10.53;;;3.50;;
14613;SDS011;7393;51.446;6.800;2024-02-21T12:10:08;13.17;;;3.63;;
14613;SDS011;7393;51.446;6.800;2024-02-21T12:12:36;10.30;;;3.27;;
14613;SDS011;7393;51.446;6.800;2024-02-21T12:15:03;7.43;;;3.63;;
14613;SDS011;7393;51.446;6.800;2024-02-21T12:17:32;9.63;;;3.40;;
14613;SDS011;7393;51.446;6.800;2024-02-21T12:19:59;11.90;;;3.23;;
14613;SDS011;7393;51.446;6.800;2024-02-21T12:22:26;10.27;;;3.53;;
14613;SDS011;7393;51.446;6.800;2024-02-21T12:24:53;8.77;;;3.37;;
14613;SDS011;7393;51.446;6.800;2024-02-21T12:27:20;9.03;;;3.20;;
14613;SDS011;7393;51.446;6.800;2024-02-21T12:29:47;15.67;;;3.57;;
14613;SDS011;7393;51.446;6.800;2024-02-21T12:32:14;10.07;;;3.00;;
14613;SDS011;7393;51.446;6.800;2024-02-21T12:34:42;9.40;;;3.57;;
14613;SDS011;7393;51.446;6.800;2024-02-21T12:37:10;10.33;;;3.40;;
14613;SDS011;7393;51.446;6.800;2024-02-21T12:39:38;8.53;;;3.13;;
14613;SDS011;7393;51.446;6.800;2024-02-21T12:42:04;6.63;;;2.60;;
14613;SDS011;7393;51.446;6.800;2024-02-21T12:44:31;10.37;;;3.20;;
14613;SDS011;7393;51.446;6.800;2024-02-21T12:46:59;10.33;;;3.57;;
14613;SDS011;7393;51.446;6.800;2024-02-21T12:49:25;15.93;;;4.17;;
14613;SDS011;7393;51.446;6.800;2024-02-21T12:51:56;8.30;;;3.27;;
14613;SDS011;7393;51.446;6.800;2024-02-21T12:54:22;13.87;;;3.07;;
14613;SDS011;7393;51.446;6.800;2024-02-21T12:56:49;10.07;;;3.00;;
14613;SDS011;7393;51.446;6.800;2024-02-21T12:59:16;11.27;;;3.50;;
14613;SDS011;7393;51.446;6.800;2024-02-21T13:01:43;8.23;;;2.70;;
14613;SDS011;7393;51.446;6.800;2024-02-21T13:04:10;8.03;;;3.37;;
14613;SDS011;7393;51.446;6.800;2024-02-21T13:06:36;8.77;;;2.90;;
14613;SDS011;7393;51.446;6.800;2024-02-21T13:09:05;6.13;;;2.80;;
14613;SDS011;7393;51.446;6.800;2024-02-21T13:11:33;8.80;;;3.03;;
14613;SDS011;7393;51.446;6.800;2024-02-21T13:13:59;8.00;;;2.73;;
14613;SDS011;7393;51.446;6.800;2024-02-21T13:16:26;8.80;;;3.10;;
14613;SDS011;7393;51.446;6.800;2024-02-21T13:18:53;7.43;;;3.00;;
14613;SDS011;7393;51.446;6.800;2024-02-21T13:21:19;7.37;;;2.90;;
14613;SDS011;7393;51.446;6.800;2024-02-21T13:23:46;6.30;;;2.33;;
14613;SDS011;7393;51.446;6.800;2024-02-21T13:26:15;11.40;;;2.90;;
14613;SDS011;7393;51.446;6.800;2024-02-21T13:28:41;6.57;;;2.67;;
14613;SDS011;7393;51.446;6.800;2024-02-21T13:31:09;7.10;;;2.90;;
14613;SDS011;7393;51.446;6.800;2024-02-21T13:33:36;7.60;;;3.20;;
14613;SDS011;7393;51.446;6.800;2024-02-21T13:36:03;9.30;;;3.33;;
14613;SDS011;7393;51.446;6.800;2024-02-21T13:38:30;7.70;;;2.63;;
14613;SDS011;7393;51.446;6.800;2024-02-21T13:40:57;7.73;;;3.13;;
14613;SDS011;7393;51.446;6.800;2024-02-21T13:43:26;7.20;;;3.00;;
14613;SDS011;7393;51.446;6.800;2024-02-21T13:45:55;6.27;;;2.63;;
14613;SDS011;7393;51.446;6.800;2024-02-21T13:48:23;5.20;;;2.40;;
14613;SDS011;7393;51.446;6.800;2024-02-21T13:50:50;9.33;;;2.60;;
14613;SDS011;7393;51.446;6.800;2024-02-21T13:53:17;5.97;;;2.60;;
14613;SDS011;7393;51.446;6.800;2024-02-21T13:55:45;7.37;;;2.83;;
14613;SDS011;7393;51.446;6.800;2024-02-21T13:58:12;8.03;;;2.70;;
14613;SDS011;7393;51.446;6.800;2024-02-21T14:00:40;8.07;;;2.40;;
14613;SDS011;7393;51.446;6.800;2024-02-21T14:03:07;6.13;;;2.70;;
14613;SDS011;7393;51.446;6.800;2024-02-21T14:05:34;9.70;;;3.17;;
14613;SDS011;7393;51.446;6.800;2024-02-21T14:08:01;7.83;;;2.83;;
14613;SDS011;7393;51.446;6.800;2024-02-21T14:10:30;8.23;;;2.80;;
14613;SDS011;7393;51.446;6.800;2024-02-21T14:12:57;9.37;;;3.00;;
14613;SDS011;7393;51.446;6.800;2024-02-21T14:15:24;12.27;;;3.13;;
14613;SDS011;7393;51.446;6.800;2024-02-21T14:17:52;6.17;;;2.63;;
14613;SDS011;7393;51.446;6.800;2024-02-21T14:20:20;9.20;;;2.57;;
14613;SDS011;7393;51.446;6.800;2024-02-21T14:22:47;5.57;;;3.07;;
14613;SDS011;7393;51.446;6.800;2024-02-21T14:25:13;7.83;;;2.97;;
14613;SDS011;7393;51.446;6.800;2024-02-21T14:27:41;7.73;;;2.87;;
14613;SDS011;7393;51.446;6.800;2024-02-21T14:30:09;5.30;;;2.60;;
14613;SDS011;7393;51.446;6.800;2024-02-21T14:32:36;12.17;;;3.50;;
14613;SDS011;7393;51.446;6.800;2024-02-21T14:35:04;6.80;;;2.90;;
14613;SDS011;7393;51.446;6.800;2024-02-21T14:37:32;6.80;;;2.73;;
14613;SDS011;7393;51.446;6.800;2024-02-21T14:39:58;9.50;;;2.63;;
14613;SDS011;7393;51.446;6.800;2024-02-21T14:42:26;7.40;;;2.73;;
14613;SDS011;7393;51.446;6.800;2024-02-21T14:44:53;8.23;;;3.43;;
14613;SDS011;7393;51.446;6.800;2024-02-21T14:47:28;5.93;;;2.67;;
14613;SDS011;7393;51.446;6.800;2024-02-21T14:49:56;5.13;;;2.60;;